sensor_id;sensor_type;location;lat;lon;timestamp;P1;durP1;ratioP1;P2;durP2;ratioP2
32094;SDS011;18608;53.688;10.748;2022-09-09T00:03:26;65.13;;;33.50;;
32094;SDS011;18608;53.688;10.748;2022-09-09T00:06:11;70.77;;;32.83;;
32094;SDS011;18608;53.688;10.748;2022-09-09T00:08:51;67.90;;;32.10;;
32094;SDS011;18608;53.688;10.748;2022-09-09T00:11:26;66.70;;;32.50;;
32094;SDS011;18608;53.688;10.748;2022-09-09T00:14:03;68.00;;;31.37;;
32094;SDS011;18608;53.688;10.748;2022-09-09T00:16:38;75.67;;;33.20;;
32094;SDS011;18608;53.688;10.748;2022-09-09T00:19:18;63.57;;;31.97;;
32094;SDS011;18608;53.688;10.748;2022-09-09T00:21:58;67.53;;;30.60;;
32094;SDS011;18608;53.688;10.748;2022-09-09T00:27:19;61.40;;;30.77;;
32094;SDS011;18608;53.688;10.748;2022-09-09T00:29:56;63.80;;;30.73;;
32094;SDS011;18608;53.688;10.748;2022-09-09T00:32:39;65.67;;;31.17;;
32094;SDS011;18608;53.688;10.748;2022-09-09T00:35:16;71.40;;;32.90;;
32094;SDS011;18608;53.688;10.748;2022-09-09T00:37:52;66.13;;;32.53;;
32094;SDS011;18608;53.688;10.748;2022-09-09T00:48:11;68.50;;;30.20;;
32094;SDS011;18608;53.688;10.748;2022-09-09T00:58:23;65.93;;;29.77;;
32094;SDS011;18608;53.688;10.748;2022-09-09T01:00:51;63.33;;;30.37;;
32094;SDS011;18608;53.688;10.748;2022-09-09T01:06:11;75.53;;;29.53;;
32094;SDS011;18608;53.688;10.748;2022-09-09T01:11:03;61.17;;;29.40;;
32094;SDS011;18608;53.688;10.748;2022-09-09T01:13:31;54.70;;;26.07;;
32094;SDS011;18608;53.688;10.748;2022-09-09T01:15:59;54.47;;;28.13;;
32094;SDS011;18608;53.688;10.748;2022-09-09T01:18:28;64.37;;;27.97;;
32094;SDS011;18608;53.688;10.748;2022-09-09T01:26:42;63.03;;;28.13;;
32094;SDS011;18608;53.688;10.748;2022-09-09T01:29:13;64.93;;;28.40;;
32094;SDS011;18608;53.688;10.748;2022-09-09T01:32:02;54.13;;;26.10;;
32094;SDS011;18608;53.688;10.748;2022-09-09T01:34:29;60.27;;;25.13;;
32094;SDS011;18608;53.688;10.748;2022-09-09T01:37:04;55.13;;;23.80;;
32094;SDS011;18608;53.688;10.748;2022-09-09T01:39:33;66.13;;;25.43;;
32094;SDS011;18608;53.688;10.748;2022-09-09T01:42:01;54.67;;;25.03;;
32094;SDS011;18608;53.688;10.748;2022-09-09T01:44:28;52.03;;;23.00;;
32094;SDS011;18608;53.688;10.748;2022-09-09T01:46:55;102.57;;;25.90;;
32094;SDS011;18608;53.688;10.748;2022-09-09T01:49:22;58.10;;;25.53;;
32094;SDS011;18608;53.688;10.748;2022-09-09T01:51:49;118.93;;;33.83;;
32094;SDS011;18608;53.688;10.748;2022-09-09T01:54:17;56.27;;;25.07;;
32094;SDS011;18608;53.688;10.748;2022-09-09T02:05:17;51.23;;;24.20;;
32094;SDS011;18608;53.688;10.748;2022-09-09T02:07:56;55.33;;;22.10;;
32094;SDS011;18608;53.688;10.748;2022-09-09T02:10:53;55.13;;;24.53;;
32094;SDS011;18608;53.688;10.748;2022-09-09T02:13:20;50.37;;;24.37;;
32094;SDS011;18608;53.688;10.748;2022-09-09T02:18:36;48.73;;;24.63;;
32094;SDS011;18608;53.688;10.748;2022-09-09T02:21:07;49.00;;;24.47;;
32094;SDS011;18608;53.688;10.748;2022-09-09T02:23:33;51.50;;;23.10;;
32094;SDS011;18608;53.688;10.748;2022-09-09T02:26:00;42.57;;;21.47;;
32094;SDS011;18608;53.688;10.748;2022-09-09T02:28:28;49.20;;;23.17;;
32094;SDS011;18608;53.688;10.748;2022-09-09T02:30:57;53.20;;;24.37;;
32094;SDS011;18608;53.688;10.748;2022-09-09T02:33:25;44.83;;;23.43;;
32094;SDS011;18608;53.688;10.748;2022-09-09T02:35:53;44.20;;;23.70;;
32094;SDS011;18608;53.688;10.748;2022-09-09T02:38:28;39.33;;;22.17;;
32094;SDS011;18608;53.688;10.748;2022-09-09T02:40:57;47.30;;;22.73;;
32094;SDS011;18608;53.688;10.748;2022-09-09T02:43:23;39.43;;;21.30;;
32094;SDS011;18608;53.688;10.748;2022-09-09T02:49:11;46.70;;;24.07;;
32094;SDS011;18608;53.688;10.748;2022-09-09T02:54:13;50.10;;;23.63;;
32094;SDS011;18608;53.688;10.748;2022-09-09T02:56:56;41.90;;;21.20;;
32094;SDS011;18608;53.688;10.748;2022-09-09T02:59:29;49.73;;;22.73;;
32094;SDS011;18608;53.688;10.748;2022-09-09T03:01:55;43.90;;;23.43;;
32094;SDS011;18608;53.688;10.748;2022-09-09T03:04:21;60.07;;;25.43;;
32094;SDS011;18608;53.688;10.748;2022-09-09T03:06:46;45.17;;;23.33;;
32094;SDS011;18608;53.688;10.748;2022-09-09T03:09:13;44.07;;;21.80;;
32094;SDS011;18608;53.688;10.748;2022-09-09T03:11:39;51.53;;;23.93;;
32094;SDS011;18608;53.688;10.748;2022-09-09T03:14:05;53.27;;;23.10;;
32094;SDS011;18608;53.688;10.748;2022-09-09T03:16:31;48.83;;;23.63;;
32094;SDS011;18608;53.688;10.748;2022-09-09T03:18:59;49.87;;;24.40;;
32094;SDS011;18608;53.688;10.748;2022-09-09T03:21:25;53.90;;;24.03;;
32094;SDS011;18608;53.688;10.748;2022-09-09T03:23:51;48.60;;;22.57;;
32094;SDS011;18608;53.688;10.748;2022-09-09T03:26:17;42.10;;;21.07;;
32094;SDS011;18608;53.688;10.748;2022-09-09T03:28:44;47.30;;;23.20;;
32094;SDS011;18608;53.688;10.748;2022-09-09T03:31:10;49.77;;;24.50;;
32094;SDS011;18608;53.688;10.748;2022-09-09T03:33:36;44.40;;;22.40;;
32094;SDS011;18608;53.688;10.748;2022-09-09T03:36:03;53.47;;;24.10;;
32094;SDS011;18608;53.688;10.748;2022-09-09T03:38:29;49.70;;;25.20;;
32094;SDS011;18608;53.688;10.748;2022-09-09T03:40:55;52.10;;;24.70;;
32094;SDS011;18608;53.688;10.748;2022-09-09T03:43:22;45.23;;;23.00;;
32094;SDS011;18608;53.688;10.748;2022-09-09T03:45:49;47.97;;;22.17;;
32094;SDS011;18608;53.688;10.748;2022-09-09T03:48:15;53.80;;;23.63;;
32094;SDS011;18608;53.688;10.748;2022-09-09T03:50:47;41.10;;;21.97;;
32094;SDS011;18608;53.688;10.748;2022-09-09T03:53:16;51.27;;;25.10;;
32094;SDS011;18608;53.688;10.748;2022-09-09T03:55:47;49.10;;;24.50;;
32094;SDS011;18608;53.688;10.748;2022-09-09T03:58:15;47.43;;;23.33;;
32094;SDS011;18608;53.688;10.748;2022-09-09T04:00:44;47.40;;;25.30;;
32094;SDS011;18608;53.688;10.748;2022-09-09T04:03:18;45.87;;;23.67;;
32094;SDS011;18608;53.688;10.748;2022-09-09T04:05:44;46.27;;;24.10;;
32094;SDS011;18608;53.688;10.748;2022-09-09T04:08:10;46.33;;;23.97;;
32094;SDS011;18608;53.688;10.748;2022-09-09T04:10:36;55.13;;;22.60;;
32094;SDS011;18608;53.688;10.748;2022-09-09T04:13:05;46.70;;;23.00;;
32094;SDS011;18608;53.688;10.748;2022-09-09T04:15:31;49.07;;;23.10;;
32094;SDS011;18608;53.688;10.748;2022-09-09T04:17:57;44.93;;;23.67;;
32094;SDS011;18608;53.688;10.748;2022-09-09T04:20:23;48.50;;;23.43;;
32094;SDS011;18608;53.688;10.748;2022-09-09T04:22:48;51.03;;;25.03;;
32094;SDS011;18608;53.688;10.748;2022-09-09T04:25:14;47.57;;;24.10;;
32094;SDS011;18608;53.688;10.748;2022-09-09T04:27:40;48.83;;;25.13;;
32094;SDS011;18608;53.688;10.748;2022-09-09T04:30:07;45.03;;;23.37;;
32094;SDS011;18608;53.688;10.748;2022-09-09T04:32:33;47.87;;;24.57;;
32094;SDS011;18608;53.688;10.748;2022-09-09T04:35:00;49.20;;;24.23;;
32094;SDS011;18608;53.688;10.748;2022-09-09T04:37:26;43.73;;;23.80;;
32094;SDS011;18608;53.688;10.748;2022-09-09T04:39:52;45.80;;;23.73;;
32094;SDS011;18608;53.688;10.748;2022-09-09T04:42:18;45.57;;;23.27;;
32094;SDS011;18608;53.688;10.748;2022-09-09T04:44:44;50.53;;;24.70;;
32094;SDS011;18608;53.688;10.748;2022-09-09T04:47:10;45.63;;;22.80;;
32094;SDS011;18608;53.688;10.748;2022-09-09T04:49:36;46.10;;;22.27;;
32094;SDS011;18608;53.688;10.748;2022-09-09T04:52:03;50.60;;;24.87;;
32094;SDS011;18608;53.688;10.748;2022-09-09T04:54:29;45.67;;;21.50;;
32094;SDS011;18608;53.688;10.748;2022-09-09T04:56:55;51.67;;;23.63;;
32094;SDS011;18608;53.688;10.748;2022-09-09T04:59:21;49.57;;;24.03;;
32094;SDS011;18608;53.688;10.748;2022-09-09T05:01:48;46.13;;;24.53;;
32094;SDS011;18608;53.688;10.748;2022-09-09T05:04:15;56.43;;;24.87;;
32094;SDS011;18608;53.688;10.748;2022-09-09T05:06:41;49.60;;;23.90;;
32094;SDS011;18608;53.688;10.748;2022-09-09T05:09:07;42.80;;;21.97;;
32094;SDS011;18608;53.688;10.748;2022-09-09T05:11:33;46.10;;;23.23;;
32094;SDS011;18608;53.688;10.748;2022-09-09T05:14:01;52.27;;;23.03;;
32094;SDS011;18608;53.688;10.748;2022-09-09T05:16:28;49.23;;;23.70;;
32094;SDS011;18608;53.688;10.748;2022-09-09T05:18:55;41.60;;;23.50;;
32094;SDS011;18608;53.688;10.748;2022-09-09T05:21:21;44.53;;;23.37;;
32094;SDS011;18608;53.688;10.748;2022-09-09T05:23:49;44.70;;;23.27;;
32094;SDS011;18608;53.688;10.748;2022-09-09T05:26:17;47.50;;;24.50;;
32094;SDS011;18608;53.688;10.748;2022-09-09T05:28:46;42.40;;;22.80;;
32094;SDS011;18608;53.688;10.748;2022-09-09T05:31:13;38.90;;;22.53;;
32094;SDS011;18608;53.688;10.748;2022-09-09T05:33:40;48.00;;;23.70;;
32094;SDS011;18608;53.688;10.748;2022-09-09T05:36:08;40.67;;;22.33;;
32094;SDS011;18608;53.688;10.748;2022-09-09T05:38:37;40.23;;;21.50;;
32094;SDS011;18608;53.688;10.748;2022-09-09T05:41:04;43.73;;;22.13;;
32094;SDS011;18608;53.688;10.748;2022-09-09T05:43:30;40.50;;;22.37;;
32094;SDS011;18608;53.688;10.748;2022-09-09T05:46:00;37.03;;;20.73;;
32094;SDS011;18608;53.688;10.748;2022-09-09T05:48:29;42.53;;;21.70;;
32094;SDS011;18608;53.688;10.748;2022-09-09T05:50:57;40.40;;;19.50;;
32094;SDS011;18608;53.688;10.748;2022-09-09T05:53:23;40.47;;;21.30;;
32094;SDS011;18608;53.688;10.748;2022-09-09T05:55:49;39.33;;;20.10;;
32094;SDS011;18608;53.688;10.748;2022-09-09T05:58:15;43.73;;;22.37;;
32094;SDS011;18608;53.688;10.748;2022-09-09T06:00:41;41.10;;;22.30;;
32094;SDS011;18608;53.688;10.748;2022-09-09T06:03:10;33.63;;;19.13;;
32094;SDS011;18608;53.688;10.748;2022-09-09T06:05:36;37.57;;;20.60;;
32094;SDS011;18608;53.688;10.748;2022-09-09T06:08:03;40.67;;;19.80;;
32094;SDS011;18608;53.688;10.748;2022-09-09T06:10:29;37.00;;;18.63;;
32094;SDS011;18608;53.688;10.748;2022-09-09T06:12:55;28.57;;;19.00;;
32094;SDS011;18608;53.688;10.748;2022-09-09T06:15:21;31.20;;;18.63;;
32094;SDS011;18608;53.688;10.748;2022-09-09T06:17:47;30.03;;;17.57;;
32094;SDS011;18608;53.688;10.748;2022-09-09T06:20:14;27.33;;;16.63;;
32094;SDS011;18608;53.688;10.748;2022-09-09T06:22:40;29.23;;;16.47;;
32094;SDS011;18608;53.688;10.748;2022-09-09T06:25:06;29.23;;;16.37;;
32094;SDS011;18608;53.688;10.748;2022-09-09T06:27:33;31.30;;;18.10;;
32094;SDS011;18608;53.688;10.748;2022-09-09T06:29:59;29.07;;;16.33;;
32094;SDS011;18608;53.688;10.748;2022-09-09T06:32:25;26.63;;;15.63;;
32094;SDS011;18608;53.688;10.748;2022-09-09T06:34:51;27.83;;;16.00;;
32094;SDS011;18608;53.688;10.748;2022-09-09T06:37:17;27.03;;;16.50;;
32094;SDS011;18608;53.688;10.748;2022-09-09T06:39:43;26.20;;;14.23;;
32094;SDS011;18608;53.688;10.748;2022-09-09T06:42:09;26.33;;;15.90;;
32094;SDS011;18608;53.688;10.748;2022-09-09T06:44:35;30.60;;;18.07;;
32094;SDS011;18608;53.688;10.748;2022-09-09T06:47:01;22.87;;;15.47;;
32094;SDS011;18608;53.688;10.748;2022-09-09T06:49:28;22.63;;;13.13;;
32094;SDS011;18608;53.688;10.748;2022-09-09T06:51:54;30.23;;;14.23;;
32094;SDS011;18608;53.688;10.748;2022-09-09T06:54:20;22.20;;;13.27;;
32094;SDS011;18608;53.688;10.748;2022-09-09T06:56:47;19.97;;;12.60;;
32094;SDS011;18608;53.688;10.748;2022-09-09T06:59:14;23.40;;;14.07;;
32094;SDS011;18608;53.688;10.748;2022-09-09T07:01:42;18.90;;;12.83;;
32094;SDS011;18608;53.688;10.748;2022-09-09T07:04:16;20.27;;;12.87;;
32094;SDS011;18608;53.688;10.748;2022-09-09T07:06:43;16.93;;;12.40;;
32094;SDS011;18608;53.688;10.748;2022-09-09T07:09:11;18.90;;;12.53;;
32094;SDS011;18608;53.688;10.748;2022-09-09T07:11:39;17.00;;;11.20;;
32094;SDS011;18608;53.688;10.748;2022-09-09T07:14:12;16.10;;;12.00;;
32094;SDS011;18608;53.688;10.748;2022-09-09T07:16:38;17.73;;;10.73;;
32094;SDS011;18608;53.688;10.748;2022-09-09T07:19:05;19.17;;;12.73;;
32094;SDS011;18608;53.688;10.748;2022-09-09T07:21:31;15.60;;;10.63;;
32094;SDS011;18608;53.688;10.748;2022-09-09T07:23:58;15.73;;;10.37;;
32094;SDS011;18608;53.688;10.748;2022-09-09T07:26:25;17.90;;;8.73;;
32094;SDS011;18608;53.688;10.748;2022-09-09T07:28:53;13.30;;;9.50;;
32094;SDS011;18608;53.688;10.748;2022-09-09T07:31:21;11.70;;;8.57;;
32094;SDS011;18608;53.688;10.748;2022-09-09T07:33:55;12.33;;;8.57;;
32094;SDS011;18608;53.688;10.748;2022-09-09T07:36:22;11.00;;;8.40;;
32094;SDS011;18608;53.688;10.748;2022-09-09T07:38:51;14.33;;;7.77;;
32094;SDS011;18608;53.688;10.748;2022-09-09T07:41:22;12.37;;;8.23;;
32094;SDS011;18608;53.688;10.748;2022-09-09T07:43:56;12.60;;;7.07;;
32094;SDS011;18608;53.688;10.748;2022-09-09T07:46:25;9.57;;;6.83;;
32094;SDS011;18608;53.688;10.748;2022-09-09T07:48:52;9.67;;;7.83;;
32094;SDS011;18608;53.688;10.748;2022-09-09T07:51:21;13.40;;;6.93;;
32094;SDS011;18608;53.688;10.748;2022-09-09T07:53:51;8.83;;;6.97;;
32094;SDS011;18608;53.688;10.748;2022-09-09T07:56:18;13.60;;;7.60;;
32094;SDS011;18608;53.688;10.748;2022-09-09T07:58:47;8.23;;;6.70;;
32094;SDS011;18608;53.688;10.748;2022-09-09T08:01:16;14.53;;;7.17;;
32094;SDS011;18608;53.688;10.748;2022-09-09T08:03:45;8.30;;;5.90;;
32094;SDS011;18608;53.688;10.748;2022-09-09T08:06:12;15.17;;;6.43;;
32094;SDS011;18608;53.688;10.748;2022-09-09T08:08:38;10.97;;;7.70;;
32094;SDS011;18608;53.688;10.748;2022-09-09T08:13:36;6.53;;;5.53;;
32094;SDS011;18608;53.688;10.748;2022-09-09T08:16:07;10.53;;;5.23;;
32094;SDS011;18608;53.688;10.748;2022-09-09T08:18:35;8.70;;;5.53;;
32094;SDS011;18608;53.688;10.748;2022-09-09T08:23:38;16.13;;;5.73;;
32094;SDS011;18608;53.688;10.748;2022-09-09T08:26:06;6.73;;;5.17;;
32094;SDS011;18608;53.688;10.748;2022-09-09T08:28:37;5.83;;;5.23;;
32094;SDS011;18608;53.688;10.748;2022-09-09T08:31:05;6.17;;;5.57;;
32094;SDS011;18608;53.688;10.748;2022-09-09T08:33:50;10.40;;;5.40;;
32094;SDS011;18608;53.688;10.748;2022-09-09T08:36:17;12.10;;;4.80;;
32094;SDS011;18608;53.688;10.748;2022-09-09T08:38:50;6.67;;;5.40;;
32094;SDS011;18608;53.688;10.748;2022-09-09T08:52:49;7.70;;;4.33;;
32094;SDS011;18608;53.688;10.748;2022-09-09T08:58:15;4.00;;;3.60;;
32094;SDS011;18608;53.688;10.748;2022-09-09T09:12:15;3.50;;;3.30;;
32094;SDS011;18608;53.688;10.748;2022-09-09T09:14:44;5.50;;;3.50;;
32094;SDS011;18608;53.688;10.748;2022-09-09T09:17:13;5.20;;;4.03;;
32094;SDS011;18608;53.688;10.748;2022-09-09T09:19:42;3.70;;;3.37;;
32094;SDS011;18608;53.688;10.748;2022-09-09T09:24:52;4.43;;;3.37;;
32094;SDS011;18608;53.688;10.748;2022-09-09T09:30:39;6.67;;;4.00;;
32094;SDS011;18608;53.688;10.748;2022-09-09T09:35:56;8.07;;;4.50;;
32094;SDS011;18608;53.688;10.748;2022-09-09T09:38:25;6.37;;;3.30;;
32094;SDS011;18608;53.688;10.748;2022-09-09T09:40:53;4.30;;;3.60;;
32094;SDS011;18608;53.688;10.748;2022-09-09T09:43:24;14.13;;;4.80;;
32094;SDS011;18608;53.688;10.748;2022-09-09T09:45:55;3.73;;;3.30;;
32094;SDS011;18608;53.688;10.748;2022-09-09T09:48:22;4.20;;;3.57;;
32094;SDS011;18608;53.688;10.748;2022-09-09T09:50:51;4.70;;;4.20;;
32094;SDS011;18608;53.688;10.748;2022-09-09T09:53:21;7.50;;;3.87;;
32094;SDS011;18608;53.688;10.748;2022-09-09T09:55:56;5.20;;;3.93;;
32094;SDS011;18608;53.688;10.748;2022-09-09T09:58:29;4.73;;;4.10;;
32094;SDS011;18608;53.688;10.748;2022-09-09T10:00:58;4.60;;;4.17;;
32094;SDS011;18608;53.688;10.748;2022-09-09T10:05:51;4.27;;;3.90;;
32094;SDS011;18608;53.688;10.748;2022-09-09T10:08:17;6.33;;;4.47;;
32094;SDS011;18608;53.688;10.748;2022-09-09T10:10:53;7.23;;;4.87;;
32094;SDS011;18608;53.688;10.748;2022-09-09T10:13:53;5.40;;;3.20;;
32094;SDS011;18608;53.688;10.748;2022-09-09T10:16:48;4.60;;;3.97;;
32094;SDS011;18608;53.688;10.748;2022-09-09T10:24:27;6.80;;;2.20;;
32094;SDS011;18608;53.688;10.748;2022-09-09T10:30:23;2.70;;;2.50;;
32094;SDS011;18608;53.688;10.748;2022-09-09T10:35:42;3.43;;;1.60;;
32094;SDS011;18608;53.688;10.748;2022-09-09T10:38:17;1.67;;;1.57;;
32094;SDS011;18608;53.688;10.748;2022-09-09T10:56:18;3.67;;;1.50;;
32094;SDS011;18608;53.688;10.748;2022-09-09T11:01:22;1.60;;;1.50;;
32094;SDS011;18608;53.688;10.748;2022-09-09T11:04:15;2.70;;;2.00;;
32094;SDS011;18608;53.688;10.748;2022-09-09T11:06:47;4.10;;;1.97;;
32094;SDS011;18608;53.688;10.748;2022-09-09T11:09:18;2.33;;;1.40;;
32094;SDS011;18608;53.688;10.748;2022-09-09T11:11:50;3.00;;;1.73;;
32094;SDS011;18608;53.688;10.748;2022-09-09T11:14:32;2.13;;;1.47;;
32094;SDS011;18608;53.688;10.748;2022-09-09T11:17:12;4.87;;;1.70;;
32094;SDS011;18608;53.688;10.748;2022-09-09T11:19:44;6.43;;;1.63;;
32094;SDS011;18608;53.688;10.748;2022-09-09T11:33:34;2.40;;;1.30;;
32094;SDS011;18608;53.688;10.748;2022-09-09T11:39:05;4.10;;;1.30;;
32094;SDS011;18608;53.688;10.748;2022-09-09T11:41:37;1.33;;;1.10;;
32094;SDS011;18608;53.688;10.748;2022-09-09T11:44:16;3.30;;;1.73;;
32094;SDS011;18608;53.688;10.748;2022-09-09T11:46:50;2.43;;;1.20;;
32094;SDS011;18608;53.688;10.748;2022-09-09T11:49:39;4.73;;;1.53;;
32094;SDS011;18608;53.688;10.748;2022-09-09T11:52:40;1.53;;;1.27;;
32094;SDS011;18608;53.688;10.748;2022-09-09T11:55:08;2.60;;;1.63;;
32094;SDS011;18608;53.688;10.748;2022-09-09T11:57:57;2.70;;;1.47;;
32094;SDS011;18608;53.688;10.748;2022-09-09T12:00:49;3.10;;;1.50;;
32094;SDS011;18608;53.688;10.748;2022-09-09T12:06:12;2.00;;;1.20;;
32094;SDS011;18608;53.688;10.748;2022-09-09T12:08:40;1.20;;;1.10;;
32094;SDS011;18608;53.688;10.748;2022-09-09T12:11:10;2.00;;;1.50;;
32094;SDS011;18608;53.688;10.748;2022-09-09T12:13:36;1.70;;;1.60;;
32094;SDS011;18608;53.688;10.748;2022-09-09T12:16:02;4.10;;;1.50;;
32094;SDS011;18608;53.688;10.748;2022-09-09T12:18:37;1.40;;;1.30;;
32094;SDS011;18608;53.688;10.748;2022-09-09T12:21:15;1.23;;;1.13;;
32094;SDS011;18608;53.688;10.748;2022-09-09T12:23:57;1.40;;;1.30;;
32094;SDS011;18608;53.688;10.748;2022-09-09T12:26:33;3.60;;;1.17;;
32094;SDS011;18608;53.688;10.748;2022-09-09T12:34:42;1.80;;;0.87;;
32094;SDS011;18608;53.688;10.748;2022-09-09T12:39:40;1.50;;;1.00;;
32094;SDS011;18608;53.688;10.748;2022-09-09T12:42:19;1.77;;;1.37;;
32094;SDS011;18608;53.688;10.748;2022-09-09T12:44:52;1.13;;;1.10;;
32094;SDS011;18608;53.688;10.748;2022-09-09T12:47:19;1.40;;;0.97;;
32094;SDS011;18608;53.688;10.748;2022-09-09T12:49:48;2.77;;;2.03;;
32094;SDS011;18608;53.688;10.748;2022-09-09T12:52:18;1.80;;;1.17;;
32094;SDS011;18608;53.688;10.748;2022-09-09T12:55:01;2.33;;;1.50;;
32094;SDS011;18608;53.688;10.748;2022-09-09T12:57:31;2.03;;;1.60;;
32094;SDS011;18608;53.688;10.748;2022-09-09T13:00:04;3.37;;;1.13;;
32094;SDS011;18608;53.688;10.748;2022-09-09T13:05:25;1.60;;;1.10;;
32094;SDS011;18608;53.688;10.748;2022-09-09T13:08:00;9.83;;;1.10;;
32094;SDS011;18608;53.688;10.748;2022-09-09T13:10:28;2.30;;;0.90;;
32094;SDS011;18608;53.688;10.748;2022-09-09T13:12:57;1.77;;;1.07;;
32094;SDS011;18608;53.688;10.748;2022-09-09T13:15:23;2.20;;;1.00;;
32094;SDS011;18608;53.688;10.748;2022-09-09T13:17:54;3.93;;;1.20;;
32094;SDS011;18608;53.688;10.748;2022-09-09T13:20:22;1.20;;;1.10;;
32094;SDS011;18608;53.688;10.748;2022-09-09T13:22:49;1.30;;;1.10;;
32094;SDS011;18608;53.688;10.748;2022-09-09T13:30:31;3.80;;;1.63;;
32094;SDS011;18608;53.688;10.748;2022-09-09T13:33:05;6.13;;;2.00;;
32094;SDS011;18608;53.688;10.748;2022-09-09T13:36:12;2.00;;;1.90;;
32094;SDS011;18608;53.688;10.748;2022-09-09T13:38:36;4.73;;;1.83;;
32094;SDS011;18608;53.688;10.748;2022-09-09T13:41:08;3.33;;;1.70;;
32094;SDS011;18608;53.688;10.748;2022-09-09T13:43:45;13.47;;;2.37;;
32094;SDS011;18608;53.688;10.748;2022-09-09T13:46:25;3.43;;;2.37;;
32094;SDS011;18608;53.688;10.748;2022-09-09T13:49:00;3.13;;;1.87;;
32094;SDS011;18608;53.688;10.748;2022-09-09T13:54:00;6.23;;;2.40;;
32094;SDS011;18608;53.688;10.748;2022-09-09T13:56:26;3.17;;;2.47;;
32094;SDS011;18608;53.688;10.748;2022-09-09T13:58:52;3.00;;;2.80;;
32094;SDS011;18608;53.688;10.748;2022-09-09T14:01:18;4.40;;;2.70;;
32094;SDS011;18608;53.688;10.748;2022-09-09T14:03:44;3.30;;;2.93;;
32094;SDS011;18608;53.688;10.748;2022-09-09T14:06:10;3.57;;;3.17;;
32094;SDS011;18608;53.688;10.748;2022-09-09T14:08:36;16.27;;;3.60;;
32094;SDS011;18608;53.688;10.748;2022-09-09T14:11:03;6.80;;;4.00;;
32094;SDS011;18608;53.688;10.748;2022-09-09T14:13:29;12.23;;;6.10;;
32094;SDS011;18608;53.688;10.748;2022-09-09T14:15:55;7.27;;;5.13;;
32094;SDS011;18608;53.688;10.748;2022-09-09T14:18:21;7.80;;;5.63;;
32094;SDS011;18608;53.688;10.748;2022-09-09T14:20:48;4.53;;;4.20;;
32094;SDS011;18608;53.688;10.748;2022-09-09T14:23:15;3.60;;;2.90;;
32094;SDS011;18608;53.688;10.748;2022-09-09T14:25:42;4.40;;;3.10;;
32094;SDS011;18608;53.688;10.748;2022-09-09T14:28:09;3.70;;;3.30;;
32094;SDS011;18608;53.688;10.748;2022-09-09T14:30:36;7.37;;;3.37;;
32094;SDS011;18608;53.688;10.748;2022-09-09T14:33:03;3.20;;;2.90;;
32094;SDS011;18608;53.688;10.748;2022-09-09T14:35:29;3.27;;;2.77;;
32094;SDS011;18608;53.688;10.748;2022-09-09T14:37:55;5.90;;;3.00;;
32094;SDS011;18608;53.688;10.748;2022-09-09T14:40:21;6.17;;;3.20;;
32094;SDS011;18608;53.688;10.748;2022-09-09T14:42:47;4.00;;;3.17;;
32094;SDS011;18608;53.688;10.748;2022-09-09T14:45:13;3.23;;;2.50;;
32094;SDS011;18608;53.688;10.748;2022-09-09T14:47:39;2.40;;;2.23;;
32094;SDS011;18608;53.688;10.748;2022-09-09T14:50:05;5.90;;;2.73;;
32094;SDS011;18608;53.688;10.748;2022-09-09T14:52:33;5.80;;;2.70;;
32094;SDS011;18608;53.688;10.748;2022-09-09T14:54:59;3.17;;;2.60;;
32094;SDS011;18608;53.688;10.748;2022-09-09T14:57:24;4.23;;;2.20;;
32094;SDS011;18608;53.688;10.748;2022-09-09T14:59:50;2.53;;;2.33;;
32094;SDS011;18608;53.688;10.748;2022-09-09T15:02:16;2.63;;;2.43;;
32094;SDS011;18608;53.688;10.748;2022-09-09T15:04:42;2.87;;;2.67;;
32094;SDS011;18608;53.688;10.748;2022-09-09T15:07:09;2.57;;;2.47;;
32094;SDS011;18608;53.688;10.748;2022-09-09T15:09:35;7.23;;;2.50;;
32094;SDS011;18608;53.688;10.748;2022-09-09T15:12:02;4.43;;;2.67;;
32094;SDS011;18608;53.688;10.748;2022-09-09T15:14:29;3.47;;;2.80;;
32094;SDS011;18608;53.688;10.748;2022-09-09T15:16:55;6.03;;;2.90;;
32094;SDS011;18608;53.688;10.748;2022-09-09T15:19:21;2.60;;;2.40;;
32094;SDS011;18608;53.688;10.748;2022-09-09T15:21:47;6.07;;;2.90;;
32094;SDS011;18608;53.688;10.748;2022-09-09T15:24:14;4.20;;;2.67;;
32094;SDS011;18608;53.688;10.748;2022-09-09T15:26:41;3.00;;;2.33;;
32094;SDS011;18608;53.688;10.748;2022-09-09T15:29:07;2.97;;;2.73;;
32094;SDS011;18608;53.688;10.748;2022-09-09T15:31:33;5.60;;;3.03;;
32094;SDS011;18608;53.688;10.748;2022-09-09T15:34:00;2.87;;;2.67;;
32094;SDS011;18608;53.688;10.748;2022-09-09T15:36:28;4.33;;;3.67;;
32094;SDS011;18608;53.688;10.748;2022-09-09T15:39:06;5.77;;;2.60;;
32094;SDS011;18608;53.688;10.748;2022-09-09T15:41:34;5.17;;;2.33;;
32094;SDS011;18608;53.688;10.748;2022-09-09T15:44:00;9.07;;;3.10;;
32094;SDS011;18608;53.688;10.748;2022-09-09T15:48:56;4.93;;;4.53;;
32094;SDS011;18608;53.688;10.748;2022-09-09T15:51:23;4.00;;;2.90;;
32094;SDS011;18608;53.688;10.748;2022-09-09T15:53:56;6.77;;;2.93;;
32094;SDS011;18608;53.688;10.748;2022-09-09T15:56:23;3.30;;;2.90;;
32094;SDS011;18608;53.688;10.748;2022-09-09T15:58:50;3.10;;;2.90;;
32094;SDS011;18608;53.688;10.748;2022-09-09T16:01:17;3.23;;;2.93;;
32094;SDS011;18608;53.688;10.748;2022-09-09T16:03:44;4.90;;;3.83;;
32094;SDS011;18608;53.688;10.748;2022-09-09T16:06:15;3.60;;;3.30;;
32094;SDS011;18608;53.688;10.748;2022-09-09T16:08:49;5.30;;;4.10;;
32094;SDS011;18608;53.688;10.748;2022-09-09T16:11:17;5.93;;;3.80;;
32094;SDS011;18608;53.688;10.748;2022-09-09T16:13:47;4.90;;;4.50;;
32094;SDS011;18608;53.688;10.748;2022-09-09T16:16:15;5.13;;;3.97;;
32094;SDS011;18608;53.688;10.748;2022-09-09T16:18:45;8.03;;;4.20;;
32094;SDS011;18608;53.688;10.748;2022-09-09T16:21:13;8.87;;;4.70;;
32094;SDS011;18608;53.688;10.748;2022-09-09T16:23:39;6.40;;;4.00;;
32094;SDS011;18608;53.688;10.748;2022-09-09T16:26:05;5.53;;;4.63;;
32094;SDS011;18608;53.688;10.748;2022-09-09T16:28:31;5.57;;;5.03;;
32094;SDS011;18608;53.688;10.748;2022-09-09T16:30:57;5.00;;;4.53;;
32094;SDS011;18608;53.688;10.748;2022-09-09T16:33:23;4.50;;;4.10;;
32094;SDS011;18608;53.688;10.748;2022-09-09T16:35:51;5.13;;;4.20;;
32094;SDS011;18608;53.688;10.748;2022-09-09T16:38:17;9.17;;;5.10;;
32094;SDS011;18608;53.688;10.748;2022-09-09T16:40:43;8.63;;;4.07;;
32094;SDS011;18608;53.688;10.748;2022-09-09T16:43:09;7.83;;;4.00;;
32094;SDS011;18608;53.688;10.748;2022-09-09T16:45:43;4.60;;;3.77;;
32094;SDS011;18608;53.688;10.748;2022-09-09T16:48:10;6.70;;;3.83;;
32094;SDS011;18608;53.688;10.748;2022-09-09T16:50:36;5.00;;;4.43;;
32094;SDS011;18608;53.688;10.748;2022-09-09T16:53:04;4.80;;;3.80;;
32094;SDS011;18608;53.688;10.748;2022-09-09T16:55:31;7.73;;;3.80;;
32094;SDS011;18608;53.688;10.748;2022-09-09T16:57:57;7.07;;;4.20;;
32094;SDS011;18608;53.688;10.748;2022-09-09T17:00:23;4.23;;;3.83;;
32094;SDS011;18608;53.688;10.748;2022-09-09T17:02:49;9.63;;;4.50;;
32094;SDS011;18608;53.688;10.748;2022-09-09T17:05:15;3.10;;;2.90;;
32094;SDS011;18608;53.688;10.748;2022-09-09T17:07:42;5.13;;;3.37;;
32094;SDS011;18608;53.688;10.748;2022-09-09T17:10:08;8.20;;;4.80;;
32094;SDS011;18608;53.688;10.748;2022-09-09T17:12:34;3.17;;;2.53;;